sensor_id;sensor_type;location;lat;lon;timestamp;temperature;humidity
32769;DHT22;23049;54.304;8.826;2022-09-09T00:04:13;15.70;99.90
32769;DHT22;23049;54.304;8.826;2022-09-09T00:07:07;15.70;99.90
32769;DHT22;23049;54.304;8.826;2022-09-09T00:15:36;16.20;99.90
32769;DHT22;23049;54.304;8.826;2022-09-09T00:18:22;16.50;99.90
32769;DHT22;23049;54.304;8.826;2022-09-09T00:21:08;16.70;99.90
32769;DHT22;23049;54.304;8.826;2022-09-09T00:23:45;16.90;99.90
32769;DHT22;23049;54.304;8.826;2022-09-09T00:26:42;16.90;99.90
32769;DHT22;23049;54.304;8.826;2022-09-09T00:29:23;16.90;99.90
32769;DHT22;23049;54.304;8.826;2022-09-09T00:32:12;16.90;99.90
32769;DHT22;23049;54.304;8.826;2022-09-09T00:34:48;16.90;99.90
32769;DHT22;23049;54.304;8.826;2022-09-09T00:37:15;16.80;99.90
32769;DHT22;23049;54.304;8.826;2022-09-09T00:39:44;16.80;99.90
32769;DHT22;23049;54.304;8.826;2022-09-09T00:42:36;16.80;99.90
32769;DHT22;23049;54.304;8.826;2022-09-09T00:47:53;16.70;99.90
32769;DHT22;23049;54.304;8.826;2022-09-09T00:58:27;16.80;99.90
32769;DHT22;23049;54.304;8.826;2022-09-09T01:01:11;16.90;99.90
32769;DHT22;23049;54.304;8.826;2022-09-09T01:06:38;16.80;99.90
32769;DHT22;23049;54.304;8.826;2022-09-09T01:10:11;16.80;99.90
32769;DHT22;23049;54.304;8.826;2022-09-09T01:12:15;16.80;99.90
32769;DHT22;23049;54.304;8.826;2022-09-09T01:14:50;16.80;99.90
32769;DHT22;23049;54.304;8.826;2022-09-09T01:22:34;16.60;99.90
32769;DHT22;23049;54.304;8.826;2022-09-09T01:28:09;16.50;99.90
32769;DHT22;23049;54.304;8.826;2022-09-09T01:30:39;16.50;99.90
32769;DHT22;23049;54.304;8.826;2022-09-09T01:33:12;16.50;99.90
32769;DHT22;23049;54.304;8.826;2022-09-09T01:36:04;16.50;99.90
32769;DHT22;23049;54.304;8.826;2022-09-09T01:38:32;16.40;99.90
32769;DHT22;23049;54.304;8.826;2022-09-09T01:40:59;16.40;99.90
32769;DHT22;23049;54.304;8.826;2022-09-09T01:43:26;16.40;99.90
32769;DHT22;23049;54.304;8.826;2022-09-09T01:45:56;16.30;99.90
32769;DHT22;23049;54.304;8.826;2022-09-09T01:48:25;16.40;99.90
32769;DHT22;23049;54.304;8.826;2022-09-09T01:50:51;16.40;99.90
32769;DHT22;23049;54.304;8.826;2022-09-09T01:53:18;16.40;99.90
32769;DHT22;23049;54.304;8.826;2022-09-09T01:59:59;16.40;99.90
32769;DHT22;23049;54.304;8.826;2022-09-09T02:02:09;16.30;99.90
32769;DHT22;23049;54.304;8.826;2022-09-09T02:09:51;16.30;99.90
32769;DHT22;23049;54.304;8.826;2022-09-09T02:12:20;16.20;99.90
32769;DHT22;23049;54.304;8.826;2022-09-09T02:14:56;16.20;99.90
32769;DHT22;23049;54.304;8.826;2022-09-09T02:17:30;16.20;99.90
32769;DHT22;23049;54.304;8.826;2022-09-09T02:20:12;16.20;99.90
32769;DHT22;23049;54.304;8.826;2022-09-09T02:22:42;16.20;99.90
32769;DHT22;23049;54.304;8.826;2022-09-09T02:25:12;16.10;99.90
32769;DHT22;23049;54.304;8.826;2022-09-09T02:27:41;16.10;99.90
32769;DHT22;23049;54.304;8.826;2022-09-09T02:30:09;16.20;99.90
32769;DHT22;23049;54.304;8.826;2022-09-09T02:32:36;16.20;99.90
32769;DHT22;23049;54.304;8.826;2022-09-09T02:35:12;16.30;99.90
32769;DHT22;23049;54.304;8.826;2022-09-09T02:37:40;16.20;99.90
32769;DHT22;23049;54.304;8.826;2022-09-09T02:40:10;16.20;99.90
32769;DHT22;23049;54.304;8.826;2022-09-09T02:42:43;16.10;99.90
32769;DHT22;23049;54.304;8.826;2022-09-09T02:45:11;16.00;99.90
32769;DHT22;23049;54.304;8.826;2022-09-09T02:50:13;15.90;99.90
32769;DHT22;23049;54.304;8.826;2022-09-09T02:53:11;15.80;99.90
32769;DHT22;23049;54.304;8.826;2022-09-09T02:55:47;15.80;99.90
32769;DHT22;23049;54.304;8.826;2022-09-09T02:58:16;15.70;99.90
32769;DHT22;23049;54.304;8.826;2022-09-09T03:03:08;15.60;99.90
32769;DHT22;23049;54.304;8.826;2022-09-09T03:05:34;15.60;99.90
32769;DHT22;23049;54.304;8.826;2022-09-09T03:08:01;15.60;99.90
32769;DHT22;23049;54.304;8.826;2022-09-09T03:10:27;15.60;99.90
32769;DHT22;23049;54.304;8.826;2022-09-09T03:12:53;15.60;99.90
32769;DHT22;23049;54.304;8.826;2022-09-09T03:15:18;15.50;99.90
32769;DHT22;23049;54.304;8.826;2022-09-09T03:17:44;15.60;99.90
32769;DHT22;23049;54.304;8.826;2022-09-09T03:20:10;15.50;99.90
32769;DHT22;23049;54.304;8.826;2022-09-09T03:22:36;15.50;99.90
32769;DHT22;23049;54.304;8.826;2022-09-09T03:25:02;15.50;99.90
32769;DHT22;23049;54.304;8.826;2022-09-09T03:27:28;15.50;99.90
32769;DHT22;23049;54.304;8.826;2022-09-09T03:29:54;15.50;99.90
32769;DHT22;23049;54.304;8.826;2022-09-09T03:32:21;15.50;99.90
32769;DHT22;23049;54.304;8.826;2022-09-09T03:34:48;15.50;99.90
32769;DHT22;23049;54.304;8.826;2022-09-09T03:37:18;15.40;99.90
32769;DHT22;23049;54.304;8.826;2022-09-09T03:39:44;15.40;99.90
32769;DHT22;23049;54.304;8.826;2022-09-09T03:42:12;15.40;99.90
32769;DHT22;23049;54.304;8.826;2022-09-09T03:44:39;15.40;99.90
32769;DHT22;23049;54.304;8.826;2022-09-09T03:47:05;15.30;99.90
32769;DHT22;23049;54.304;8.826;2022-09-09T03:49:32;15.30;99.90
32769;DHT22;23049;54.304;8.826;2022-09-09T03:51:57;15.30;99.90
32769;DHT22;23049;54.304;8.826;2022-09-09T03:54:24;15.20;99.90
32769;DHT22;23049;54.304;8.826;2022-09-09T03:56:50;15.20;99.90
32769;DHT22;23049;54.304;8.826;2022-09-09T03:59:16;15.20;99.90
32769;DHT22;23049;54.304;8.826;2022-09-09T04:01:42;15.20;99.90
32769;DHT22;23049;54.304;8.826;2022-09-09T04:04:08;15.10;99.90
32769;DHT22;23049;54.304;8.826;2022-09-09T04:06:34;15.10;99.90
32769;DHT22;23049;54.304;8.826;2022-09-09T04:09:00;15.10;99.90
32769;DHT22;23049;54.304;8.826;2022-09-09T04:11:28;14.90;99.90
32769;DHT22;23049;54.304;8.826;2022-09-09T04:13:53;14.90;99.90
32769;DHT22;23049;54.304;8.826;2022-09-09T04:16:19;14.90;99.90
32769;DHT22;23049;54.304;8.826;2022-09-09T04:18:46;15.00;99.90
32769;DHT22;23049;54.304;8.826;2022-09-09T04:21:11;14.90;99.90
32769;DHT22;23049;54.304;8.826;2022-09-09T04:23:38;14.90;99.90
32769;DHT22;23049;54.304;8.826;2022-09-09T04:26:04;14.90;99.90
32769;DHT22;23049;54.304;8.826;2022-09-09T04:28:33;14.80;99.90
32769;DHT22;23049;54.304;8.826;2022-09-09T04:31:06;14.80;99.90
32769;DHT22;23049;54.304;8.826;2022-09-09T04:33:33;14.80;99.90
32769;DHT22;23049;54.304;8.826;2022-09-09T04:35:59;14.70;99.90
32769;DHT22;23049;54.304;8.826;2022-09-09T04:38:25;14.80;99.90
32769;DHT22;23049;54.304;8.826;2022-09-09T04:40:51;14.70;99.90
32769;DHT22;23049;54.304;8.826;2022-09-09T04:43:19;14.70;99.90
32769;DHT22;23049;54.304;8.826;2022-09-09T04:45:50;14.70;99.90
32769;DHT22;23049;54.304;8.826;2022-09-09T04:48:19;14.70;99.90
32769;DHT22;23049;54.304;8.826;2022-09-09T04:53:25;14.60;99.90
32769;DHT22;23049;54.304;8.826;2022-09-09T04:55:52;14.70;99.90
32769;DHT22;23049;54.304;8.826;2022-09-09T04:58:18;14.70;99.90
32769;DHT22;23049;54.304;8.826;2022-09-09T05:00:43;14.60;99.90
32769;DHT22;23049;54.304;8.826;2022-09-09T05:03:09;14.60;99.90
32769;DHT22;23049;54.304;8.826;2022-09-09T05:05:35;14.60;99.90
32769;DHT22;23049;54.304;8.826;2022-09-09T05:08:05;14.60;99.90
32769;DHT22;23049;54.304;8.826;2022-09-09T05:10:32;14.60;99.90
32769;DHT22;23049;54.304;8.826;2022-09-09T05:12:58;14.60;99.90
32769;DHT22;23049;54.304;8.826;2022-09-09T05:15:24;14.60;99.90
32769;DHT22;23049;54.304;8.826;2022-09-09T05:17:49;14.60;99.90
32769;DHT22;23049;54.304;8.826;2022-09-09T05:20:15;14.50;99.90
32769;DHT22;23049;54.304;8.826;2022-09-09T05:22:40;14.60;99.90
32769;DHT22;23049;54.304;8.826;2022-09-09T05:25:06;14.60;99.90
32769;DHT22;23049;54.304;8.826;2022-09-09T05:27:34;14.60;99.90
32769;DHT22;23049;54.304;8.826;2022-09-09T05:29:59;14.60;99.90
32769;DHT22;23049;54.304;8.826;2022-09-09T05:32:25;14.60;99.90
32769;DHT22;23049;54.304;8.826;2022-09-09T05:34:51;14.70;99.90
32769;DHT22;23049;54.304;8.826;2022-09-09T05:37:18;14.70;99.90
32769;DHT22;23049;54.304;8.826;2022-09-09T05:39:44;14.70;99.90
32769;DHT22;23049;54.304;8.826;2022-09-09T05:42:09;14.70;99.90
32769;DHT22;23049;54.304;8.826;2022-09-09T05:44:35;14.80;99.90
32769;DHT22;23049;54.304;8.826;2022-09-09T05:47:01;14.80;99.90
32769;DHT22;23049;54.304;8.826;2022-09-09T05:49:27;14.90;99.90
32769;DHT22;23049;54.304;8.826;2022-09-09T05:51:52;14.90;99.90
32769;DHT22;23049;54.304;8.826;2022-09-09T05:54:19;15.00;99.90
32769;DHT22;23049;54.304;8.826;2022-09-09T05:56:44;15.00;99.90
32769;DHT22;23049;54.304;8.826;2022-09-09T05:59:10;15.10;99.90
32769;DHT22;23049;54.304;8.826;2022-09-09T06:01:37;15.10;99.90
32769;DHT22;23049;54.304;8.826;2022-09-09T06:04:06;15.10;99.90
32769;DHT22;23049;54.304;8.826;2022-09-09T06:06:35;15.20;99.90
32769;DHT22;23049;54.304;8.826;2022-09-09T06:09:02;15.30;99.90
32769;DHT22;23049;54.304;8.826;2022-09-09T06:11:30;15.40;99.90
32769;DHT22;23049;54.304;8.826;2022-09-09T06:14:01;15.50;99.90
32769;DHT22;23049;54.304;8.826;2022-09-09T06:16:28;15.60;99.90
32769;DHT22;23049;54.304;8.826;2022-09-09T06:18:55;15.60;99.90
32769;DHT22;23049;54.304;8.826;2022-09-09T06:21:35;15.70;99.90
32769;DHT22;23049;54.304;8.826;2022-09-09T06:24:04;15.70;99.90
32769;DHT22;23049;54.304;8.826;2022-09-09T06:26:32;15.70;99.90
32769;DHT22;23049;54.304;8.826;2022-09-09T06:28:59;15.80;99.90
32769;DHT22;23049;54.304;8.826;2022-09-09T06:31:27;15.90;99.90
32769;DHT22;23049;54.304;8.826;2022-09-09T06:33:56;15.90;99.90
32769;DHT22;23049;54.304;8.826;2022-09-09T06:36:23;16.00;99.90
32769;DHT22;23049;54.304;8.826;2022-09-09T06:38:49;16.10;99.90
32769;DHT22;23049;54.304;8.826;2022-09-09T06:41:17;16.20;99.90
32769;DHT22;23049;54.304;8.826;2022-09-09T06:43:44;16.30;99.90
32769;DHT22;23049;54.304;8.826;2022-09-09T06:46:21;16.30;99.90
32769;DHT22;23049;54.304;8.826;2022-09-09T06:48:47;16.40;99.90
32769;DHT22;23049;54.304;8.826;2022-09-09T06:51:14;16.50;99.90
32769;DHT22;23049;54.304;8.826;2022-09-09T06:53:41;16.60;99.90
32769;DHT22;23049;54.304;8.826;2022-09-09T06:58:45;16.40;99.90
32769;DHT22;23049;54.304;8.826;2022-09-09T07:01:13;16.30;99.90
32769;DHT22;23049;54.304;8.826;2022-09-09T07:03:39;16.30;99.90
32769;DHT22;23049;54.304;8.826;2022-09-09T07:06:06;16.30;99.90
32769;DHT22;23049;54.304;8.826;2022-09-09T07:08:33;16.30;99.90
32769;DHT22;23049;54.304;8.826;2022-09-09T07:11:06;16.30;99.90
32769;DHT22;23049;54.304;8.826;2022-09-09T07:13:33;16.50;99.90
32769;DHT22;23049;54.304;8.826;2022-09-09T07:16:05;16.50;99.90
32769;DHT22;23049;54.304;8.826;2022-09-09T07:18:31;16.60;99.90
32769;DHT22;23049;54.304;8.826;2022-09-09T07:20:57;16.70;99.90
32769;DHT22;23049;54.304;8.826;2022-09-09T07:23:23;16.70;99.90
32769;DHT22;23049;54.304;8.826;2022-09-09T07:25:49;16.80;99.90
32769;DHT22;23049;54.304;8.826;2022-09-09T07:28:16;17.00;99.90
32769;DHT22;23049;54.304;8.826;2022-09-09T07:30:42;17.20;99.90
32769;DHT22;23049;54.304;8.826;2022-09-09T07:33:09;17.30;99.90
32769;DHT22;23049;54.304;8.826;2022-09-09T07:35:37;17.40;99.90
32769;DHT22;23049;54.304;8.826;2022-09-09T07:38:03;17.50;99.90
32769;DHT22;23049;54.304;8.826;2022-09-09T07:40:33;17.40;99.90
32769;DHT22;23049;54.304;8.826;2022-09-09T07:42:59;17.40;99.90
32769;DHT22;23049;54.304;8.826;2022-09-09T07:45:25;17.40;99.90
32769;DHT22;23049;54.304;8.826;2022-09-09T07:47:53;17.50;99.90
32769;DHT22;23049;54.304;8.826;2022-09-09T07:50:21;17.60;99.90
32769;DHT22;23049;54.304;8.826;2022-09-09T07:52:47;17.60;99.90
32769;DHT22;23049;54.304;8.826;2022-09-09T07:55:12;17.60;99.90
32769;DHT22;23049;54.304;8.826;2022-09-09T07:57:38;17.70;99.90
32769;DHT22;23049;54.304;8.826;2022-09-09T08:00:04;17.60;99.90
32769;DHT22;23049;54.304;8.826;2022-09-09T08:02:30;17.60;99.90
32769;DHT22;23049;54.304;8.826;2022-09-09T08:04:56;17.60;99.90
32769;DHT22;23049;54.304;8.826;2022-09-09T08:07:22;17.50;99.90
32769;DHT22;23049;54.304;8.826;2022-09-09T08:09:48;17.40;99.90
32769;DHT22;23049;54.304;8.826;2022-09-09T08:12:15;17.40;99.90
32769;DHT22;23049;54.304;8.826;2022-09-09T08:14:40;17.50;99.90
32769;DHT22;23049;54.304;8.826;2022-09-09T08:17:06;17.50;99.90
32769;DHT22;23049;54.304;8.826;2022-09-09T08:19:32;17.60;99.90
32769;DHT22;23049;54.304;8.826;2022-09-09T08:22:01;17.50;99.90
32769;DHT22;23049;54.304;8.826;2022-09-09T08:26:46;17.60;99.90
32769;DHT22;23049;54.304;8.826;2022-09-09T08:29:13;17.60;99.90
32769;DHT22;23049;54.304;8.826;2022-09-09T08:31:49;17.60;99.90
32769;DHT22;23049;54.304;8.826;2022-09-09T08:34:16;17.70;99.90
32769;DHT22;23049;54.304;8.826;2022-09-09T08:36:46;17.70;99.90
32769;DHT22;23049;54.304;8.826;2022-09-09T08:39:15;17.70;99.90
32769;DHT22;23049;54.304;8.826;2022-09-09T08:53:00;17.60;99.90
32769;DHT22;23049;54.304;8.826;2022-09-09T08:55:28;17.70;99.90
32769;DHT22;23049;54.304;8.826;2022-09-09T08:57:57;17.50;99.90
32769;DHT22;23049;54.304;8.826;2022-09-09T09:00:28;17.40;99.90
32769;DHT22;23049;54.304;8.826;2022-09-09T09:05:54;17.30;99.90
32769;DHT22;23049;54.304;8.826;2022-09-09T09:08:47;17.20;99.90
32769;DHT22;23049;54.304;8.826;2022-09-09T09:11:18;17.30;99.90
32769;DHT22;23049;54.304;8.826;2022-09-09T09:14:01;17.40;99.90
32769;DHT22;23049;54.304;8.826;2022-09-09T09:16:41;17.50;99.90
32769;DHT22;23049;54.304;8.826;2022-09-09T09:19:14;17.40;99.90
32769;DHT22;23049;54.304;8.826;2022-09-09T09:24:21;17.40;99.90
32769;DHT22;23049;54.304;8.826;2022-09-09T09:26:49;17.50;99.90
32769;DHT22;23049;54.304;8.826;2022-09-09T09:29:17;17.60;99.90
32769;DHT22;23049;54.304;8.826;2022-09-09T09:31:47;17.60;99.90
32769;DHT22;23049;54.304;8.826;2022-09-09T09:34:14;17.70;99.90
32769;DHT22;23049;54.304;8.826;2022-09-09T09:36:43;17.70;99.90
32769;DHT22;23049;54.304;8.826;2022-09-09T09:39:23;17.80;99.90
32769;DHT22;23049;54.304;8.826;2022-09-09T09:41:49;17.90;99.90
32769;DHT22;23049;54.304;8.826;2022-09-09T09:44:28;17.80;99.90
32769;DHT22;23049;54.304;8.826;2022-09-09T09:47:10;17.90;99.90
32769;DHT22;23049;54.304;8.826;2022-09-09T09:49:37;18.00;99.90
32769;DHT22;23049;54.304;8.826;2022-09-09T09:54:28;18.00;99.90
32769;DHT22;23049;54.304;8.826;2022-09-09T09:56:55;17.90;99.90
32769;DHT22;23049;54.304;8.826;2022-09-09T09:59:21;18.00;99.90
32769;DHT22;23049;54.304;8.826;2022-09-09T10:01:47;18.00;99.90
32769;DHT22;23049;54.304;8.826;2022-09-09T10:04:20;18.00;99.90
32769;DHT22;23049;54.304;8.826;2022-09-09T10:06:46;18.10;99.90
32769;DHT22;23049;54.304;8.826;2022-09-09T10:17:32;18.10;99.90
32769;DHT22;23049;54.304;8.826;2022-09-09T10:20:18;18.10;99.90
32769;DHT22;23049;54.304;8.826;2022-09-09T10:30:23;18.20;99.90
32769;DHT22;23049;54.304;8.826;2022-09-09T10:33:01;18.30;99.90
32769;DHT22;23049;54.304;8.826;2022-09-09T10:35:36;18.40;99.90
32769;DHT22;23049;54.304;8.826;2022-09-09T10:38:20;18.50;99.90
32769;DHT22;23049;54.304;8.826;2022-09-09T10:43:44;18.70;99.90
32769;DHT22;23049;54.304;8.826;2022-09-09T10:46:27;19.00;99.90
32769;DHT22;23049;54.304;8.826;2022-09-09T10:52:01;19.20;99.90
32769;DHT22;23049;54.304;8.826;2022-09-09T10:57:40;19.30;99.90
32769;DHT22;23049;54.304;8.826;2022-09-09T11:02:41;19.60;99.90
32769;DHT22;23049;54.304;8.826;2022-09-09T11:05:30;19.60;99.90
32769;DHT22;23049;54.304;8.826;2022-09-09T11:08:17;19.70;99.90
32769;DHT22;23049;54.304;8.826;2022-09-09T11:11:04;19.60;99.90
32769;DHT22;23049;54.304;8.826;2022-09-09T11:13:53;19.40;99.90
32769;DHT22;23049;54.304;8.826;2022-09-09T11:19:03;19.20;99.90
32769;DHT22;23049;54.304;8.826;2022-09-09T11:21:34;19.10;99.90
32769;DHT22;23049;54.304;8.826;2022-09-09T11:24:06;19.10;99.90
32769;DHT22;23049;54.304;8.826;2022-09-09T11:26:47;19.10;99.90
32769;DHT22;23049;54.304;8.826;2022-09-09T11:32:09;19.00;99.90
32769;DHT22;23049;54.304;8.826;2022-09-09T11:40:28;19.10;99.90
32769;DHT22;23049;54.304;8.826;2022-09-09T11:43:11;19.00;99.90
32769;DHT22;23049;54.304;8.826;2022-09-09T11:45:37;19.00;99.90
32769;DHT22;23049;54.304;8.826;2022-09-09T11:48:05;19.00;99.90
32769;DHT22;23049;54.304;8.826;2022-09-09T11:50:35;19.10;99.90
32769;DHT22;23049;54.304;8.826;2022-09-09T11:53:20;19.10;99.90
32769;DHT22;23049;54.304;8.826;2022-09-09T11:56:05;19.20;99.90
32769;DHT22;23049;54.304;8.826;2022-09-09T11:58:41;19.30;99.90
32769;DHT22;23049;54.304;8.826;2022-09-09T12:01:27;19.40;99.90
32769;DHT22;23049;54.304;8.826;2022-09-09T12:04:05;19.60;99.90
32769;DHT22;23049;54.304;8.826;2022-09-09T12:06:41;19.70;99.90
32769;DHT22;23049;54.304;8.826;2022-09-09T12:12:27;20.00;99.90
32769;DHT22;23049;54.304;8.826;2022-09-09T12:17:29;20.30;99.90
32769;DHT22;23049;54.304;8.826;2022-09-09T12:22:49;20.60;99.90
32769;DHT22;23049;54.304;8.826;2022-09-09T12:31:05;20.90;99.90
32769;DHT22;23049;54.304;8.826;2022-09-09T12:33:37;21.20;99.90
32769;DHT22;23049;54.304;8.826;2022-09-09T12:36:18;21.20;99.90
32769;DHT22;23049;54.304;8.826;2022-09-09T12:38:45;21.30;99.90
32769;DHT22;23049;54.304;8.826;2022-09-09T12:41:27;21.20;99.90
32769;DHT22;23049;54.304;8.826;2022-09-09T12:44:04;21.10;99.90
32769;DHT22;23049;54.304;8.826;2022-09-09T12:46:42;21.00;99.90
32769;DHT22;23049;54.304;8.826;2022-09-09T12:49:38;21.10;99.90
32769;DHT22;23049;54.304;8.826;2022-09-09T12:54:44;20.90;99.90
32769;DHT22;23049;54.304;8.826;2022-09-09T12:57:12;21.00;99.90
32769;DHT22;23049;54.304;8.826;2022-09-09T12:59:41;21.10;99.90
32769;DHT22;23049;54.304;8.826;2022-09-09T13:02:20;21.30;99.90
32769;DHT22;23049;54.304;8.826;2022-09-09T13:04:46;21.40;99.90
32769;DHT22;23049;54.304;8.826;2022-09-09T13:07:13;21.30;99.90
32769;DHT22;23049;54.304;8.826;2022-09-09T13:09:39;21.30;99.90
32769;DHT22;23049;54.304;8.826;2022-09-09T13:12:06;21.30;99.90
32769;DHT22;23049;54.304;8.826;2022-09-09T13:14:38;21.30;99.90
32769;DHT22;23049;54.304;8.826;2022-09-09T13:17:05;21.20;99.90
32769;DHT22;23049;54.304;8.826;2022-09-09T13:19:36;21.20;99.90
32769;DHT22;23049;54.304;8.826;2022-09-09T13:22:16;21.30;99.90
32769;DHT22;23049;54.304;8.826;2022-09-09T13:24:45;21.30;99.90
32769;DHT22;23049;54.304;8.826;2022-09-09T13:29:56;21.40;99.90
32769;DHT22;23049;54.304;8.826;2022-09-09T13:32:24;21.50;99.90
32769;DHT22;23049;54.304;8.826;2022-09-09T13:34:55;21.50;99.90
32769;DHT22;23049;54.304;8.826;2022-09-09T13:37:38;21.60;99.90
32769;DHT22;23049;54.304;8.826;2022-09-09T13:40:17;21.50;99.90
32769;DHT22;23049;54.304;8.826;2022-09-09T13:42:44;21.50;99.90
32769;DHT22;23049;54.304;8.826;2022-09-09T13:45:19;21.50;99.90
32769;DHT22;23049;54.304;8.826;2022-09-09T13:47:48;21.80;99.90
32769;DHT22;23049;54.304;8.826;2022-09-09T13:50:26;22.00;99.90
32769;DHT22;23049;54.304;8.826;2022-09-09T13:52:54;22.00;99.90
32769;DHT22;23049;54.304;8.826;2022-09-09T13:55:22;22.10;99.90
32769;DHT22;23049;54.304;8.826;2022-09-09T13:58:02;22.00;99.90
32769;DHT22;23049;54.304;8.826;2022-09-09T14:00:33;21.90;99.90
32769;DHT22;23049;54.304;8.826;2022-09-09T14:02:59;21.80;99.90
32769;DHT22;23049;54.304;8.826;2022-09-09T14:05:30;21.90;99.90
32769;DHT22;23049;54.304;8.826;2022-09-09T14:07:58;22.10;99.90
32769;DHT22;23049;54.304;8.826;2022-09-09T14:10:25;22.30;99.90
32769;DHT22;23049;54.304;8.826;2022-09-09T14:12:51;22.40;99.90
32769;DHT22;23049;54.304;8.826;2022-09-09T14:15:18;22.40;99.90
32769;DHT22;23049;54.304;8.826;2022-09-09T14:17:46;22.50;99.90
32769;DHT22;23049;54.304;8.826;2022-09-09T14:20:11;22.50;99.90
32769;DHT22;23049;54.304;8.826;2022-09-09T14:22:40;22.60;99.90
32769;DHT22;23049;54.304;8.826;2022-09-09T14:25:06;22.60;99.90
32769;DHT22;23049;54.304;8.826;2022-09-09T14:27:32;22.60;99.90
32769;DHT22;23049;54.304;8.826;2022-09-09T14:29:58;22.60;99.90
32769;DHT22;23049;54.304;8.826;2022-09-09T14:32:25;22.40;99.90
32769;DHT22;23049;54.304;8.826;2022-09-09T14:34:51;22.40;99.90
32769;DHT22;23049;54.304;8.826;2022-09-09T14:37:17;22.30;99.90
32769;DHT22;23049;54.304;8.826;2022-09-09T14:39:43;22.40;99.90
32769;DHT22;23049;54.304;8.826;2022-09-09T14:42:10;22.40;99.90
32769;DHT22;23049;54.304;8.826;2022-09-09T14:44:37;22.50;99.90
32769;DHT22;23049;54.304;8.826;2022-09-09T14:47:04;22.50;99.90
32769;DHT22;23049;54.304;8.826;2022-09-09T14:49:30;22.60;99.90
32769;DHT22;23049;54.304;8.826;2022-09-09T14:51:56;22.50;99.90
32769;DHT22;23049;54.304;8.826;2022-09-09T14:54:22;22.40;99.90
32769;DHT22;23049;54.304;8.826;2022-09-09T14:56:48;22.20;99.90
32769;DHT22;23049;54.304;8.826;2022-09-09T14:59:14;22.00;99.90
32769;DHT22;23049;54.304;8.826;2022-09-09T15:03:03;21.80;99.90
32769;DHT22;23049;54.304;8.826;2022-09-09T15:05:29;21.70;99.90
32769;DHT22;23049;54.304;8.826;2022-09-09T15:07:55;21.50;99.90
32769;DHT22;23049;54.304;8.826;2022-09-09T15:10:21;21.40;99.90
32769;DHT22;23049;54.304;8.826;2022-09-09T15:12:47;21.40;99.90
32769;DHT22;23049;54.304;8.826;2022-09-09T15:15:13;21.20;99.90
32769;DHT22;23049;54.304;8.826;2022-09-09T15:17:38;21.20;99.90
32769;DHT22;23049;54.304;8.826;2022-09-09T15:20:04;21.00;99.90
32769;DHT22;23049;54.304;8.826;2022-09-09T15:22:31;20.80;99.90
32769;DHT22;23049;54.304;8.826;2022-09-09T15:24:57;20.60;99.90
32769;DHT22;23049;54.304;8.826;2022-09-09T15:27:23;20.30;99.90
32769;DHT22;23049;54.304;8.826;2022-09-09T15:29:49;20.20;99.90
32769;DHT22;23049;54.304;8.826;2022-09-09T15:32:15;20.10;99.90
32769;DHT22;23049;54.304;8.826;2022-09-09T15:34:41;20.00;99.90
32769;DHT22;23049;54.304;8.826;2022-09-09T15:37:10;19.90;99.90
32769;DHT22;23049;54.304;8.826;2022-09-09T15:39:39;19.90;99.90
32769;DHT22;23049;54.304;8.826;2022-09-09T15:42:04;19.80;99.90
32769;DHT22;23049;54.304;8.826;2022-09-09T15:44:41;19.80;99.90
32769;DHT22;23049;54.304;8.826;2022-09-09T15:47:11;19.80;99.90
32769;DHT22;23049;54.304;8.826;2022-09-09T15:49:38;19.80;99.90
32769;DHT22;23049;54.304;8.826;2022-09-09T15:52:04;19.80;99.90
32769;DHT22;23049;54.304;8.826;2022-09-09T15:54:34;19.80;99.90
32769;DHT22;23049;54.304;8.826;2022-09-09T15:57:02;19.80;99.90
32769;DHT22;23049;54.304;8.826;2022-09-09T16:02:27;19.30;99.90
32769;DHT22;23049;54.304;8.826;2022-09-09T16:04:53;19.10;99.90
32769;DHT22;23049;54.304;8.826;2022-09-09T16:07:18;19.00;99.90
32769;DHT22;23049;54.304;8.826;2022-09-09T16:09:44;19.10;99.90
32769;DHT22;23049;54.304;8.826;2022-09-09T16:12:10;19.10;99.90
32769;DHT22;23049;54.304;8.826;2022-09-09T16:14:37;18.90;99.90
32769;DHT22;23049;54.304;8.826;2022-09-09T16:17:05;18.90;99.90
32769;DHT22;23049;54.304;8.826;2022-09-09T16:21:50;19.10;99.90
32769;DHT22;23049;54.304;8.826;2022-09-09T16:24:18;19.30;99.90
32769;DHT22;23049;54.304;8.826;2022-09-09T16:26:47;19.30;99.90
32769;DHT22;23049;54.304;8.826;2022-09-09T16:31:45;19.00;99.90
32769;DHT22;23049;54.304;8.826;2022-09-09T16:34:12;18.90;99.90
32769;DHT22;23049;54.304;8.826;2022-09-09T16:36:41;18.80;99.90
32769;DHT22;23049;54.304;8.826;2022-09-09T16:41:45;18.80;99.90
32769;DHT22;23049;54.304;8.826;2022-09-09T16:44:12;18.70;99.90
32769;DHT22;23049;54.304;8.826;2022-09-09T16:46:41;18.40;99.90
32769;DHT22;23049;54.304;8.826;2022-09-09T16:49:11;18.10;99.90
32769;DHT22;23049;54.304;8.826;2022-09-09T16:51:42;18.20;99.90
32769;DHT22;23049;54.304;8.826;2022-09-09T16:54:10;18.40;99.90
32769;DHT22;23049;54.304;8.826;2022-09-09T16:56:38;18.30;99.90
32769;DHT22;23049;54.304;8.826;2022-09-09T16:59:11;18.30;99.90
32769;DHT22;23049;54.304;8.826;2022-09-09T17:01:38;18.20;99.90
32769;DHT22;23049;54.304;8.826;2022-09-09T17:04:08;18.10;99.90
32769;DHT22;23049;54.304;8.826;2022-09-09T17:06:34;17.90;99.90
32769;DHT22;23049;54.304;8.826;2022-09-09T17:09:04;17.80;99.90
32769;DHT22;23049;54.304;8.826;2022-09-09T17:11:30;17.70;99.90
32769;DHT22;23049;54.304;8.826;2022-09-09T17:13:57;17.50;99.90
32769;DHT22;23049;54.304;8.826;2022-09-09T17:16:28;17.40;99.90
32769;DHT22;23049;54.304;8.826;2022-09-09T17:18:55;17.30;99.90
32769;DHT22;23049;54.304;8.826;2022-09-09T17:23:46;17.00;99.90
32769;DHT22;23049;54.304;8.826;2022-09-09T17:26:14;17.10;99.90
32769;DHT22;23049;54.304;8.826;2022-09-09T17:28:41;17.00;99.90
32769;DHT22;23049;54.304;8.826;2022-09-09T17:31:09;17.00;99.90
32769;DHT22;23049;54.304;8.826;2022-09-09T17:33:40;16.90;99.90
32769;DHT22;23049;54.304;8.826;2022-09-09T17:49:12;16.80;99.90
32769;DHT22;23049;54.304;8.826;2022-09-09T17:51:38;16.70;99.90
32769;DHT22;23049;54.304;8.826;2022-09-09T17:54:06;16.70;99.90
32769;DHT22;23049;54.304;8.826;2022-09-09T17:56:36;16.60;99.90
32769;DHT22;23049;54.304;8.826;2022-09-09T17:59:04;16.60;99.90
32769;DHT22;23049;54.304;8.826;2022-09-09T18:01:32;16.60;99.90
32769;DHT22;23049;54.304;8.826;2022-09-09T18:04:00;16.50;99.90
32769;DHT22;23049;54.304;8.826;2022-09-09T18:06:31;16.50;99.90
32769;DHT22;23049;54.304;8.826;2022-09-09T18:08:59;16.50;99.90
32769;DHT22;23049;54.304;8.826;2022-09-09T18:11:29;16.50;99.90
32769;DHT22;23049;54.304;8.826;2022-09-09T18:13:58;16.40;99.90
32769;DHT22;23049;54.304;8.826;2022-09-09T18:16:26;16.40;99.90
32769;DHT22;23049;54.304;8.826;2022-09-09T18:18:54;16.40;99.90
32769;DHT22;23049;54.304;8.826;2022-09-09T18:21:23;16.30;99.90
32769;DHT22;23049;54.304;8.826;2022-09-09T18:23:50;16.20;99.90